Time;durP1;ratioP1;P1;durP2;ratioP2;P2;SDS_P1;SDS_P2;PMS_P1;PMS_P2;Temp;Humidity;BMP_temperature;BMP_pressure;BME280_temperature;BME280_humidity;BME280_pressure;Samples;Min_cycle;Max_cycle;Signal;HPM_P1;HPM_P2
2023/07/25 00:01:29;;;;;;;8.00;2.05;;;;;;;13.26;80.03;100605.81;7393440;19;20032;-72
2023/07/25 00:03:58;;;;;;;10.23;1.95;;;;;;;13.28;79.75;100611.88;7395757;19;20020;-71
2023/07/25 00:06:26;;;;;;;5.93;1.80;;;;;;;13.27;79.96;100607.50;7395388;19;19947;-72
2023/07/25 00:08:55;;;;;;;4.90;1.95;;;;;;;13.21;79.63;100605.59;7394842;19;20342;-72
2023/07/25 00:11:23;;;;;;;6.13;2.17;;;;;;;13.16;80.04;100608.88;7390466;19;19922;-72
2023/07/25 00:13:52;;;;;;;7.65;2.17;;;;;;;13.15;79.96;100598.28;7395554;19;19918;-72
2023/07/25 00:16:23;;;;;;;11.13;2.70;;;;;;;13.12;80.04;100604.06;7391409;19;19926;-72
2023/07/25 00:18:51;;;;;;;5.63;1.88;;;;;;;13.08;80.37;100592.78;7395469;19;19927;-72
2023/07/25 00:21:20;;;;;;;6.82;1.98;;;;;;;13.03;80.17;100592.56;7393679;19;19922;-72
2023/07/25 00:23:48;;;;;;;7.60;2.40;;;;;;;12.96;80.65;100591.69;7394210;19;19922;-71
2023/07/25 00:26:17;;;;;;;8.15;1.90;;;;;;;12.93;80.72;100600.22;7392309;19;20379;-72
2023/07/25 00:28:46;;;;;;;7.93;2.35;;;;;;;12.90;80.55;100600.59;7401154;19;19926;-72
2023/07/25 00:31:14;;;;;;;6.05;1.85;;;;;;;12.90;80.54;100597.06;7400408;19;19943;-72
2023/07/25 00:33:46;;;;;;;3.15;2.10;;;;;;;12.88;81.10;100593.72;7401267;19;19923;-72
2023/07/25 00:36:14;;;;;;;5.43;1.60;;;;;;;12.86;80.55;100602.03;7400598;19;19924;-72
2023/07/25 00:38:43;;;;;;;8.45;2.00;;;;;;;12.84;81.06;100596.00;7400933;19;19935;-71
2023/07/25 00:41:11;;;;;;;6.50;2.00;;;;;;;12.84;81.10;100592.44;7400532;19;19931;-71
2023/07/25 00:43:40;;;;;;;8.48;2.30;;;;;;;12.85;80.91;100604.94;7398993;19;19935;-72
2023/07/25 00:46:09;;;;;;;4.75;2.00;;;;;;;12.84;80.96;100593.28;7397783;19;19987;-72
2023/07/25 00:48:38;;;;;;;4.13;1.88;;;;;;;12.81;81.20;100595.56;7398636;19;19933;-72
2023/07/25 00:51:09;;;;;;;5.07;2.03;;;;;;;12.80;81.24;100593.88;7398753;19;19915;-71
2023/07/25 00:53:38;;;;;;;7.35;2.05;;;;;;;12.78;81.04;100590.53;7398813;19;21446;-71
2023/07/25 00:56:08;;;;;;;7.47;2.03;;;;;;;12.77;81.13;100591.59;7400231;19;19925;-71
2023/07/25 00:58:37;;;;;;;6.18;3.35;;;;;;;12.74;81.02;100587.38;7401057;19;19919;-72
2023/07/25 01:01:08;;;;;;;10.07;2.03;;;;;;;12.74;81.33;100592.78;7399943;19;20396;-71
2023/07/25 01:03:41;;;;;;;10.10;2.85;;;;;;;12.70;81.32;100588.81;7398324;19;19926;-71
2023/07/25 01:06:15;;;;;;;6.38;2.20;;;;;;;12.68;81.28;100597.13;7400719;19;19923;-71
2023/07/25 01:08:50;;;;;;;9.75;2.40;;;;;;;12.67;81.85;100594.63;7399272;19;20294;-72
2023/07/25 01:11:19;;;;;;;6.88;2.35;;;;;;;12.70;81.48;100592.38;7399978;19;19922;-72
2023/07/25 01:13:48;;;;;;;4.63;2.15;;;;;;;12.68;81.49;100594.41;7399122;19;19926;-72
2023/07/25 01:16:19;;;;;;;11.10;2.30;;;;;;;12.69;81.20;100595.25;7398015;19;19922;-72
2023/07/25 01:18:48;;;;;;;5.78;2.20;;;;;;;12.69;81.52;100597.94;7399979;19;19955;-72
2023/07/25 01:21:20;;;;;;;7.63;2.05;;;;;;;12.69;81.53;100598.78;7398842;19;19926;-72
2023/07/25 01:23:49;;;;;;;5.13;1.63;;;;;;;12.68;81.28;100604.41;7396522;19;19915;-72
2023/07/25 01:26:21;;;;;;;7.50;2.17;;;;;;;12.67;81.23;100608.13;7399136;19;19918;-72
2023/07/25 01:28:50;;;;;;;5.65;1.80;;;;;;;12.64;81.69;100600.44;7399263;19;19923;-72
2023/07/25 01:31:18;;;;;;;8.40;2.28;;;;;;;12.65;81.85;100600.22;7399126;19;19981;-72
2023/07/25 01:33:47;;;;;;;6.05;2.22;;;;;;;12.64;81.52;100603.13;7399761;19;19969;-71
2023/07/25 01:36:15;;;;;;;6.82;1.92;;;;;;;12.63;81.54;100607.72;7399032;19;19947;-71
2023/07/25 01:38:44;;;;;;;7.80;2.00;;;;;;;12.62;81.69;100605.19;7396891;19;19947;-71
2023/07/25 01:41:13;;;;;;;9.07;2.10;;;;;;;12.61;81.59;100612.47;7399914;19;20348;-71
2023/07/25 01:43:44;;;;;;;5.78;2.03;;;;;;;12.59;81.59;100611.84;7397848;19;19943;-72
2023/07/25 01:46:12;;;;;;;6.72;2.80;;;;;;;12.56;81.86;100609.50;7399258;19;19918;-72
2023/07/25 01:48:41;;;;;;;6.55;1.60;;;;;;;12.53;81.95;100612.59;7396744;19;19988;-72
2023/07/25 01:51:11;;;;;;;5.10;1.85;;;;;;;12.51;81.98;100609.25;7398209;19;19922;-72
2023/07/25 01:53:39;;;;;;;6.53;1.77;;;;;;;12.48;82.08;100606.94;7399191;19;19926;-72
2023/07/25 01:56:08;;;;;;;3.78;1.52;;;;;;;12.46;82.09;100609.03;7396856;19;20354;-72
2023/07/25 01:58:37;;;;;;;5.25;1.67;;;;;;;12.44;82.08;100604.84;7400089;19;19918;-72
2023/07/25 02:01:08;;;;;;;4.10;1.70;;;;;;;12.41;82.11;100605.22;7397209;19;19943;-72
2023/07/25 02:03:37;;;;;;;11.90;2.38;;;;;;;12.42;82.42;100615.84;7398116;19;19927;-71
2023/07/25 02:06:06;;;;;;;7.00;2.00;;;;;;;12.42;82.11;100615.00;7397614;19;19946;-71
2023/07/25 02:08:34;;;;;;;5.57;1.80;;;;;;;12.43;82.22;100612.09;7400191;19;19926;-71
2023/07/25 02:11:03;;;;;;;5.25;1.60;;;;;;;12.43;82.18;100606.69;7396035;19;20274;-72
2023/07/25 02:13:32;;;;;;;7.47;1.77;;;;;;;12.42;82.23;100607.75;7399720;19;20249;-72
2023/07/25 02:16:01;;;;;;;4.93;1.73;;;;;;;12.42;82.02;100610.44;7396733;19;19922;-72
2023/07/25 02:18:32;;;;;;;6.32;2.08;;;;;;;12.43;82.14;100606.69;7398921;19;19918;-72
2023/07/25 02:21:02;;;;;;;7.18;1.65;;;;;;;12.40;81.94;100601.69;7397184;19;20343;-71
2023/07/25 02:23:30;;;;;;;6.88;1.92;;;;;;;12.36;82.08;100605.81;7398381;19;20357;-71
2023/07/25 02:25:59;;;;;;;4.22;1.63;;;;;;;12.33;82.44;100605.38;7398177;19;19923;-72
2023/07/25 02:28:27;;;;;;;7.93;2.13;;;;;;;12.34;82.40;100607.06;7397871;19;19922;-71
2023/07/25 02:30:56;;;;;;;7.55;2.17;;;;;;;12.34;82.17;100610.56;7397566;19;20471;-72
2023/07/25 02:33:24;;;;;;;4.43;1.92;;;;;;;12.35;82.12;100608.69;7398546;19;19947;-72
2023/07/25 02:35:56;;;;;;;7.55;2.20;;;;;;;12.34;82.15;100613.25;7399136;19;19938;-71
2023/07/25 02:38:24;;;;;;;12.32;2.22;;;;;;;12.34;82.47;100618.66;7395877;19;19947;-72
2023/07/25 02:40:53;;;;;;;5.60;2.03;;;;;;;12.34;82.48;100618.66;7397365;19;19922;-72
2023/07/25 02:43:22;;;;;;;5.60;2.00;;;;;;;12.38;82.29;100605.63;7395023;19;19963;-73
2023/07/25 02:45:51;;;;;;;9.05;2.30;;;;;;;12.40;82.30;100607.09;7392530;19;20326;-71
2023/07/25 02:48:20;;;;;;;9.43;2.30;;;;;;;12.45;82.67;100609.22;7397650;19;19930;-71
2023/07/25 02:50:48;;;;;;;6.68;1.80;;;;;;;12.49;82.59;100615.91;7397465;19;20280;-72
2023/07/25 02:53:19;;;;;;;6.40;2.40;;;;;;;12.54;82.83;100616.16;7396626;19;20795;-72
2023/07/25 02:55:48;;;;;;;8.85;2.72;;;;;;;12.56;82.78;100609.50;7396846;19;19953;-72
2023/07/25 02:58:17;;;;;;;5.68;2.13;;;;;;;12.59;82.95;100606.44;7398090;19;20547;-72
2023/07/25 03:00:47;;;;;;;5.28;2.08;;;;;;;12.59;83.15;100603.72;7396354;19;19922;-72
2023/07/25 03:03:16;;;;;;;5.00;1.80;;;;;;;12.63;83.15;100606.88;7397123;19;19922;-71
2023/07/25 03:05:44;;;;;;;8.05;2.72;;;;;;;12.67;83.20;100603.56;7397151;19;20412;-71
2023/07/25 03:08:13;;;;;;;5.25;2.53;;;;;;;12.69;83.44;100597.94;7396033;19;19936;-71
2023/07/25 03:10:44;;;;;;;6.28;2.13;;;;;;;12.71;83.85;100604.84;7391975;19;19923;-72
2023/07/25 03:13:13;;;;;;;5.78;1.90;;;;;;;12.74;83.89;100600.91;7388491;19;19922;-72
2023/07/25 03:15:42;;;;;;;3.65;2.00;;;;;;;12.76;84.00;100606.97;7378477;19;19952;-71
2023/07/25 03:18:10;;;;;;;5.60;2.10;;;;;;;12.78;84.07;100609.44;7373280;19;20681;-72
2023/07/25 03:20:39;;;;;;;7.75;2.30;;;;;;;12.79;84.24;100611.97;7365179;19;19984;-71
2023/07/25 03:23:07;;;;;;;7.55;2.80;;;;;;;12.79;84.06;100605.72;7388970;19;19922;-72
2023/07/25 03:25:36;;;;;;;5.53;2.22;;;;;;;12.80;84.68;100608.25;7392139;19;19943;-72
2023/07/25 03:28:07;;;;;;;10.82;2.17;;;;;;;12.80;84.26;100608.25;7392739;19;19914;-72
2023/07/25 03:30:36;;;;;;;7.03;2.03;;;;;;;12.81;84.75;100609.91;7385354;19;19922;-72
2023/07/25 03:33:04;;;;;;;5.15;1.60;;;;;;;12.83;84.93;100598.88;7379356;19;19922;-72
2023/07/25 03:35:33;;;;;;;4.85;2.10;;;;;;;12.85;84.60;100599.53;7371475;19;19934;-72
2023/07/25 03:38:02;;;;;;;5.65;2.17;;;;;;;12.87;84.60;100605.56;7379241;19;19931;-71
2023/07/25 03:40:30;;;;;;;6.75;2.40;;;;;;;12.89;84.58;100598.09;7394806;19;19918;-71
2023/07/25 03:42:59;;;;;;;7.10;2.08;;;;;;;12.89;84.29;100604.34;7393912;19;19943;-71
2023/07/25 03:45:30;;;;;;;6.65;2.38;;;;;;;12.92;84.92;100608.50;7392671;19;20408;-72
2023/07/25 03:47:59;;;;;;;11.40;2.30;;;;;;;12.95;84.72;100608.09;7384142;19;19947;-71
2023/07/25 03:50:27;;;;;;;4.45;1.77;;;;;;;12.96;84.96;100599.81;7394751;19;19914;-71
2023/07/25 03:52:56;;;;;;;4.88;1.90;;;;;;;12.96;84.45;100604.38;7389853;19;19918;-72
2023/07/25 03:55:24;;;;;;;6.13;1.70;;;;;;;12.96;85.17;100607.06;7393024;19;19922;-71
2023/07/25 03:57:53;;;;;;;5.22;2.03;;;;;;;12.98;85.02;100608.56;7386073;19;20361;-72
2023/07/25 04:00:22;;;;;;;7.10;1.80;;;;;;;13.00;84.77;100605.63;7382971;19;20322;-71
2023/07/25 04:02:54;;;;;;;3.92;1.70;;;;;;;13.02;84.55;100606.28;7390832;19;19922;-72
2023/07/25 04:05:22;;;;;;;4.32;1.75;;;;;;;13.03;84.89;100599.84;7391558;19;19926;-71
2023/07/25 04:07:51;;;;;;;5.40;2.13;;;;;;;13.05;84.54;100616.69;7401904;19;20038;-71
2023/07/25 04:10:20;;;;;;;5.45;1.80;;;;;;;13.07;84.59;100615.47;7400992;19;19918;-72
2023/07/25 04:12:49;;;;;;;5.90;1.70;;;;;;;13.09;84.67;100610.69;7401234;19;19919;-72
2023/07/25 04:15:17;;;;;;;5.20;2.00;;;;;;;13.14;84.75;100620.94;7402340;19;19926;-72
2023/07/25 04:17:46;;;;;;;4.75;1.85;;;;;;;13.15;84.21;100615.34;7401466;19;19918;-72
2023/07/25 04:20:17;;;;;;;7.20;1.98;;;;;;;13.18;84.50;100624.94;7400767;19;19930;-72
2023/07/25 04:22:46;;;;;;;5.82;2.10;;;;;;;13.21;84.75;100631.78;7402152;19;19944;-72
2023/07/25 04:25:14;;;;;;;6.75;1.80;;;;;;;13.22;84.31;100623.50;7398824;19;19926;-72
2023/07/25 04:27:44;;;;;;;7.55;1.77;;;;;;;13.25;84.45;100628.50;7401252;19;19944;-71
2023/07/25 04:30:14;;;;;;;8.35;1.80;;;;;;;13.26;84.33;100626.63;7397152;19;19918;-72
2023/07/25 04:32:42;;;;;;;7.15;1.80;;;;;;;13.28;84.44;100622.69;7402564;19;19980;-71
2023/07/25 04:35:11;;;;;;;4.63;2.05;;;;;;;13.32;84.53;100621.25;7401049;19;19927;-71
2023/07/25 04:37:42;;;;;;;5.78;1.98;;;;;;;13.35;84.25;100626.25;7399990;19;20478;-72
2023/07/25 04:40:12;;;;;;;3.47;1.52;;;;;;;13.39;84.35;100630.22;7400291;19;19951;-71
2023/07/25 04:42:40;;;;;;;8.05;1.63;;;;;;;13.42;84.40;100632.53;7396814;19;19945;-72
2023/07/25 04:45:11;;;;;;;5.10;1.60;;;;;;;13.44;84.25;100622.34;7398101;19;19943;-72
2023/07/25 04:47:39;;;;;;;7.63;1.92;;;;;;;13.47;84.06;100629.22;7400762;19;19939;-72
2023/07/25 04:50:09;;;;;;;8.27;1.83;;;;;;;13.53;83.72;100625.72;7400252;19;19958;-72
2023/07/25 04:52:37;;;;;;;5.40;1.33;;;;;;;13.58;83.49;100621.38;7400581;19;19931;-72
2023/07/25 04:55:10;;;;;;;8.85;1.50;;;;;;;13.63;83.24;100624.28;7401631;19;20464;-72
2023/07/25 04:57:38;;;;;;;6.35;1.38;;;;;;;13.66;82.90;100630.34;7402132;19;19976;-71
2023/07/25 05:00:09;;;;;;;10.63;1.67;;;;;;;13.67;82.92;100622.03;7399295;19;20362;-72
2023/07/25 05:02:37;;;;;;;5.53;1.35;;;;;;;13.69;82.99;100628.06;7396771;19;19930;-72
2023/07/25 05:05:08;;;;;;;2.42;1.23;;;;;;;13.72;82.79;100627.66;7395375;19;19951;-71
2023/07/25 05:07:37;;;;;;;8.52;1.80;;;;;;;13.75;83.56;100635.38;7400069;19;19923;-72
2023/07/25 05:10:09;;;;;;;7.35;1.77;;;;;;;13.78;83.38;100632.25;7401167;19;19926;-72
2023/07/25 05:12:37;;;;;;;4.88;1.55;;;;;;;13.80;83.50;100623.94;7397920;19;19952;-72
2023/07/25 05:15:07;;;;;;;6.68;1.70;;;;;;;13.82;83.23;100636.22;7397351;19;19948;-72
2023/07/25 05:17:36;;;;;;;4.65;1.52;;;;;;;13.85;83.58;100643.13;7399679;19;19929;-72
2023/07/25 05:20:05;;;;;;;6.97;1.88;;;;;;;13.89;83.48;100649.81;7398382;19;20364;-72
2023/07/25 05:22:33;;;;;;;6.97;1.95;;;;;;;13.92;82.88;100649.38;7396381;19;19918;-72
2023/07/25 05:25:02;;;;;;;10.90;1.58;;;;;;;13.94;82.92;100641.88;7398501;19;20382;-72
2023/07/25 05:27:33;;;;;;;6.95;1.60;;;;;;;13.97;83.05;100646.91;7397060;19;19947;-71
2023/07/25 05:30:02;;;;;;;8.38;1.80;;;;;;;13.97;82.39;100638.78;7399588;19;20325;-71
2023/07/25 05:32:31;;;;;;;4.32;1.50;;;;;;;14.00;82.49;100639.19;7398815;19;19947;-72
2023/07/25 05:34:59;;;;;;;4.28;1.80;;;;;;;14.02;82.03;100647.13;7400622;19;19922;-72
2023/07/25 05:37:36;;;;;;;6.75;1.48;;;;;;;14.02;82.25;100639.00;7399667;19;19919;-71
2023/07/25 05:40:06;;;;;;;6.15;2.10;;;;;;;14.08;82.23;100644.41;7397896;19;19919;-72
2023/07/25 05:42:37;;;;;;;6.53;1.35;;;;;;;14.15;81.73;100649.84;7398386;19;19935;-72
2023/07/25 05:45:06;;;;;;;5.15;1.33;;;;;;;14.22;81.39;100647.16;7397209;19;19922;-72
2023/07/25 05:47:35;;;;;;;5.13;1.50;;;;;;;14.24;80.99;100647.81;7398909;19;19957;-72
2023/07/25 05:50:04;;;;;;;13.05;2.47;;;;;;;14.28;80.91;100643.63;7386880;19;19970;-72
2023/07/25 05:52:32;;;;;;;5.80;1.38;;;;;;;14.29;80.92;100646.13;7391968;19;19951;-72
2023/07/25 05:55:01;;;;;;;4.45;2.17;;;;;;;14.33;80.84;100651.94;7390301;19;19925;-72
2023/07/25 05:57:29;;;;;;;4.60;1.35;;;;;;;14.35;80.46;100652.59;7390465;19;19922;-72
2023/07/25 06:00:00;;;;;;;5.78;1.40;;;;;;;14.37;79.74;100655.94;7396879;19;19919;-72
2023/07/25 06:02:29;;;;;;;4.60;1.35;;;;;;;14.36;80.11;100652.44;7395806;19;20266;-71
2023/07/25 06:04:58;;;;;;;7.03;1.45;;;;;;;14.36;80.40;100659.72;7397171;19;19918;-72
2023/07/25 06:07:27;;;;;;;6.85;1.70;;;;;;;14.33;79.83;100671.75;7397878;19;19918;-72
2023/07/25 06:09:56;;;;;;;5.07;1.45;;;;;;;14.31;80.09;100663.03;7397070;19;19915;-72
2023/07/25 06:12:24;;;;;;;6.93;1.60;;;;;;;14.31;80.04;100663.03;7391265;19;19935;-72
2023/07/25 06:14:53;;;;;;;5.93;1.23;;;;;;;14.31;80.42;100662.19;7388818;19;20646;-72
2023/07/25 06:17:24;;;;;;;6.13;1.50;;;;;;;14.32;80.05;100663.84;7395162;19;19922;-71
2023/07/25 06:19:53;;;;;;;9.88;1.67;;;;;;;14.32;80.27;100664.69;7393203;19;19935;-72
2023/07/25 06:22:21;;;;;;;6.35;1.67;;;;;;;14.33;80.10;100663.63;7395750;19;19927;-72
2023/07/25 06:24:50;;;;;;;7.15;1.80;;;;;;;14.36;80.05;100665.16;7395054;19;19922;-72
2023/07/25 06:27:18;;;;;;;7.10;2.22;;;;;;;14.38;80.18;100663.03;7399454;19;19919;-73
2023/07/25 06:29:47;;;;;;;6.18;2.03;;;;;;;14.40;79.63;100660.97;7397260;19;19922;-72
2023/07/25 06:32:15;;;;;;;5.63;1.45;;;;;;;14.43;79.22;100649.72;7397038;19;19922;-73
2023/07/25 06:34:47;;;;;;;3.03;1.15;;;;;;;14.46;78.94;100649.28;7394451;19;19922;-72
2023/07/25 06:37:15;;;;;;;6.28;1.80;;;;;;;14.49;79.23;100655.16;7394060;19;19930;-72
2023/07/25 06:39:44;;;;;;;5.18;1.63;;;;;;;14.57;78.71;100662.25;7397154;19;20638;-72
2023/07/25 06:42:12;;;;;;;5.55;1.40;;;;;;;14.63;77.63;100657.84;7395876;19;19926;-72
2023/07/25 06:44:41;;;;;;;5.80;1.25;;;;;;;14.71;77.39;100663.09;7391763;19;19942;-73
2023/07/25 06:47:09;;;;;;;7.22;1.50;;;;;;;14.77;77.52;100654.09;7397866;19;20249;-73
2023/07/25 06:49:38;;;;;;;15.38;1.98;;;;;;;14.80;76.86;100649.06;7393753;19;19918;-73
2023/07/25 06:52:09;;;;;;;7.82;1.50;;;;;;;14.86;75.54;100656.38;7388726;19;19914;-73
2023/07/25 06:54:39;;;;;;;5.75;1.45;;;;;;;14.94;76.85;100658.03;7394687;19;20260;-73
2023/07/25 06:57:08;;;;;;;5.95;0.88;;;;;;;14.97;75.43;100658.44;7394797;19;19930;-73
2023/07/25 06:59:37;;;;;;;5.10;1.20;;;;;;;15.03;75.30;100656.78;7394540;19;19931;-74
2023/07/25 07:02:06;;;;;;;3.97;0.95;;;;;;;15.09;75.24;100653.22;7393465;19;19926;-72
2023/07/25 07:04:34;;;;;;;5.00;0.93;;;;;;;15.16;73.45;100664.91;7391542;19;19966;-73
2023/07/25 07:07:03;;;;;;;5.00;1.13;;;;;;;15.20;73.72;100658.00;7396743;19;19918;-73
2023/07/25 07:09:36;;;;;;;4.10;1.00;;;;;;;15.24;72.03;100656.53;7391306;19;20337;-73
2023/07/25 07:12:05;;;;;;;4.28;1.10;;;;;;;15.29;72.37;100656.72;7392778;19;19930;-72
2023/07/25 07:14:33;;;;;;;3.28;0.80;;;;;;;15.34;72.85;100654.22;7391912;19;19922;-73
2023/07/25 07:17:02;;;;;;;4.32;1.08;;;;;;;15.40;72.45;100657.97;7394667;19;20352;-73
2023/07/25 07:19:31;;;;;;;4.88;1.00;;;;;;;15.48;72.49;100659.59;7395519;19;20373;-73
2023/07/25 07:21:59;;;;;;;4.20;1.10;;;;;;;15.55;72.65;100655.00;7391856;19;19922;-73
2023/07/25 07:24:28;;;;;;;6.22;0.80;;;;;;;15.56;71.07;100652.09;7395302;19;19926;-73
2023/07/25 07:26:59;;;;;;;7.15;1.38;;;;;;;15.57;69.05;100651.03;7396359;19;20571;-73
2023/07/25 07:29:28;;;;;;;3.28;1.05;;;;;;;15.60;69.05;100655.19;7396315;19;19922;-73
2023/07/25 07:31:56;;;;;;;6.35;1.27;;;;;;;15.60;69.48;100661.47;7394486;19;19932;-73
2023/07/25 07:34:25;;;;;;;3.47;0.95;;;;;;;15.59;69.26;100664.38;7393122;19;19935;-73
2023/07/25 07:36:53;;;;;;;6.75;1.23;;;;;;;15.61;69.31;100659.59;7396140;19;19919;-73
2023/07/25 07:39:22;;;;;;;6.75;1.13;;;;;;;15.65;69.85;100666.25;7398064;19;19947;-73
2023/07/25 07:41:51;;;;;;;3.92;0.95;;;;;;;15.69;68.75;100670.19;7401756;19;20364;-73
2023/07/25 07:44:22;;;;;;;5.03;1.75;;;;;;;15.77;67.08;100662.66;7397328;19;19919;-73
2023/07/25 07:46:50;;;;;;;3.63;0.80;;;;;;;15.86;67.99;100664.06;7401698;19;19911;-72
2023/07/25 07:49:19;;;;;;;4.45;0.80;;;;;;;15.96;67.27;100670.91;7395915;19;20358;-73
2023/07/25 07:51:47;;;;;;;6.68;0.98;;;;;;;16.02;66.55;100668.16;7400255;19;20629;-73
2023/07/25 07:54:16;;;;;;;2.33;1.00;;;;;;;16.12;66.64;100679.41;7402628;19;19930;-73
2023/07/25 07:56:45;;;;;;;5.03;0.98;;;;;;;16.18;67.19;100678.50;7399319;19;19957;-72
2023/07/25 07:59:13;;;;;;;3.55;1.00;;;;;;;16.20;66.33;100681.84;7397277;19;19927;-73
2023/07/25 08:01:44;;;;;;;3.60;1.50;;;;;;;16.19;65.51;100685.63;7397949;19;19939;-73
2023/07/25 08:04:13;;;;;;;4.28;0.80;;;;;;;16.15;66.45;100678.13;7395809;19;19922;-73
2023/07/25 08:06:42;;;;;;;4.45;0.98;;;;;;;16.17;66.00;100690.44;7395775;19;19944;-73
2023/07/25 08:09:10;;;;;;;2.47;0.88;;;;;;;16.26;66.12;100691.88;7399387;19;19922;-73
2023/07/25 08:11:40;;;;;;;2.20;0.60;;;;;;;16.41;65.90;100694.25;7394887;19;19951;-73
2023/07/25 08:14:08;;;;;;;2.42;0.65;;;;;;;16.48;64.09;100686.06;7403255;19;19958;-73
2023/07/25 08:16:37;;;;;;;1.92;0.65;;;;;;;16.50;64.08;100692.94;7401315;19;19934;-73
2023/07/25 08:19:08;;;;;;;3.08;0.50;;;;;;;16.44;62.33;100693.81;7398215;19;19926;-74
2023/07/25 08:21:37;;;;;;;3.15;0.80;;;;;;;16.37;62.41;100701.19;7398623;19;20040;-72
2023/07/25 08:24:06;;;;;;;5.65;1.15;;;;;;;16.34;62.40;100701.63;7393943;19;19934;-72
2023/07/25 08:26:35;;;;;;;4.45;0.60;;;;;;;16.38;62.22;100702.88;7396906;19;19927;-73
2023/07/25 08:29:04;;;;;;;3.90;0.55;;;;;;;16.49;63.02;100701.31;7390588;19;19998;-73
2023/07/25 08:31:32;;;;;;;3.35;0.75;;;;;;;16.60;61.83;100698.78;7397229;19;19922;-74
2023/07/25 08:34:01;;;;;;;4.97;0.60;;;;;;;16.75;60.51;100712.03;7400487;19;19962;-72
2023/07/25 08:36:32;;;;;;;5.18;0.80;;;;;;;16.90;59.49;100706.28;7398879;19;20365;-74
2023/07/25 08:39:01;;;;;;;4.95;1.30;;;;;;;16.99;59.86;100713.94;7399069;19;20570;-73
2023/07/25 08:41:37;;;;;;;1.73;0.55;;;;;;;17.05;57.06;100709.47;7398986;19;19943;-71
2023/07/25 08:44:12;;;;;;;2.47;0.63;;;;;;;17.10;58.64;100715.94;7399679;19;19915;-72
2023/07/25 08:46:46;;;;;;;6.10;0.80;;;;;;;17.27;59.07;100709.91;7400971;19;19925;-72
2023/07/25 08:49:18;;;;;;;3.97;0.70;;;;;;;17.43;58.19;100709.34;7400024;19;19922;-73
2023/07/25 08:51:51;;;;;;;1.75;0.57;;;;;;;17.48;57.14;100712.19;7399368;19;20325;-72
2023/07/25 08:54:27;;;;;;;4.32;0.70;;;;;;;17.44;56.65;100713.72;7399396;19;22340;-73
2023/07/25 08:56:56;;;;;;;5.10;0.90;;;;;;;17.33;58.69;100718.03;7401836;19;19936;-73
2023/07/25 08:59:25;;;;;;;4.35;0.80;;;;;;;17.23;59.92;100723.97;7399858;19;19930;-73
2023/07/25 09:01:54;;;;;;;6.47;0.75;;;;;;;17.19;59.71;100725.47;7400765;19;20278;-73
2023/07/25 09:04:25;;;;;;;4.22;0.73;;;;;;;17.29;60.77;100726.88;7400346;19;19939;-73
2023/07/25 09:06:56;;;;;;;3.60;0.73;;;;;;;17.45;57.77;100729.84;7399374;19;19919;-72
2023/07/25 09:09:26;;;;;;;4.20;0.65;;;;;;;17.60;58.49;100716.69;7398203;19;19941;-73
2023/07/25 09:11:56;;;;;;;3.53;0.93;;;;;;;17.80;58.26;100727.38;7401806;19;19923;-73
2023/07/25 09:14:26;;;;;;;5.82;1.15;;;;;;;17.98;58.40;100721.94;7393343;19;19923;-73
2023/07/25 09:16:55;;;;;;;10.20;1.52;;;;;;;17.96;58.73;100718.59;7397345;19;19947;-73
2023/07/25 09:19:24;;;;;;;2.75;0.80;;;;;;;17.83;57.33;100717.91;7397610;19;19943;-72
2023/07/25 09:21:57;;;;;;;3.72;1.10;;;;;;;17.67;58.15;100724.81;7395429;19;19951;-73
2023/07/25 09:24:26;;;;;;;4.07;1.10;;;;;;;17.48;58.30;100740.28;7396062;19;19926;-74
2023/07/25 09:26:55;;;;;;;4.07;1.33;;;;;;;17.31;58.24;100736.47;7393970;19;19926;-72
2023/07/25 09:29:27;;;;;;;4.90;1.13;;;;;;;17.28;58.11;100738.81;7394352;19;19929;-74
2023/07/25 09:31:56;;;;;;;1.63;1.08;;;;;;;17.39;58.26;100736.16;7395402;19;19935;-73
2023/07/25 09:34:26;;;;;;;4.05;0.63;;;;;;;17.50;58.71;100740.06;7395165;19;19926;-71
2023/07/25 09:37:05;;;;;;;3.85;0.82;;;;;;;17.68;55.23;100740.09;7396448;19;19947;-73
2023/07/25 09:39:35;;;;;;;3.25;0.70;;;;;;;17.93;56.15;100738.13;7399179;19;19918;-73
2023/07/25 09:42:05;;;;;;;1.75;0.70;;;;;;;18.20;55.93;100740.53;7399575;19;20362;-72
2023/07/25 09:44:37;;;;;;;5.72;1.30;;;;;;;18.38;55.25;100735.03;7397193;19;19922;-73
2023/07/25 09:47:06;;;;;;;2.60;0.73;;;;;;;18.50;54.09;100733.19;7400043;19;19922;-73
2023/07/25 09:49:35;;;;;;;4.63;0.70;;;;;;;18.46;53.96;100738.28;7397632;19;19942;-72
2023/07/25 09:52:10;;;;;;;1.42;0.52;;;;;;;18.41;52.65;100740.84;7396909;19;19919;-72
2023/07/25 09:54:39;;;;;;;2.90;0.52;;;;;;;18.60;52.70;100747.09;7397961;19;19934;-73
2023/07/25 09:57:09;;;;;;;6.45;1.17;;;;;;;18.82;53.04;100742.78;7400767;19;20554;-72
2023/07/25 09:59:42;;;;;;;4.65;1.13;;;;;;;18.72;52.86;100745.25;7387403;19;20388;-79
2023/07/25 10:02:11;;;;;;;2.72;0.60;;;;;;;18.59;54.02;100740.00;7398281;19;19927;-82
2023/07/25 10:04:41;;;;;;;3.25;0.52;;;;;;;18.61;54.07;100737.84;7400750;19;19918;-81
2023/07/25 10:07:12;;;;;;;2.92;0.90;;;;;;;18.69;51.81;100748.44;7401214;19;19982;-81
2023/07/25 10:09:42;;;;;;;3.42;1.02;;;;;;;18.87;50.81;100745.63;7401914;19;19930;-81
2023/07/25 10:12:12;;;;;;;2.88;0.65;;;;;;;18.98;50.15;100747.53;7405396;19;19914;-84
2023/07/25 10:14:41;;;;;;;5.35;1.17;;;;;;;19.08;50.75;100741.50;7402010;19;19918;-78
2023/07/25 10:17:10;;;;;;;4.53;1.00;;;;;;;19.16;50.79;100732.13;7399996;19;19967;-73
2023/07/25 10:19:50;;;;;;;4.68;0.95;;;;;;;19.32;49.39;100736.91;7398421;19;19923;-73
2023/07/25 10:22:35;;;;;;;4.57;0.85;;;;;;;19.11;48.26;100751.16;7397670;19;19950;-73
2023/07/25 10:25:03;;;;;;;8.43;2.03;;;;;;;19.07;51.68;100748.03;7397726;19;19948;-70
2023/07/25 10:27:32;;;;;;;3.83;1.17;;;;;;;19.31;51.62;100741.53;7398964;19;20286;-71
2023/07/25 10:30:04;;;;;;;2.13;0.70;;;;;;;19.57;48.95;100750.34;7398553;19;20373;-71
2023/07/25 10:32:46;;;;;;;2.53;0.70;;;;;;;19.71;48.15;100741.66;7395369;19;19943;-71
2023/07/25 10:35:15;;;;;;;1.85;0.80;;;;;;;19.79;49.10;100744.03;7398587;19;20422;-70
2023/07/25 10:37:47;;;;;;;2.90;0.95;;;;;;;19.57;51.31;100764.00;7398857;19;19930;-70
2023/07/25 10:40:19;;;;;;;5.43;0.95;;;;;;;19.12;52.80;100777.38;7395227;19;20293;-69
2023/07/25 10:42:54;;;;;;;2.30;0.60;;;;;;;18.62;55.39;100764.09;7397811;19;19935;-70
2023/07/25 10:45:25;;;;;;;4.38;0.80;;;;;;;18.32;54.69;100764.06;7396957;19;19934;-71
2023/07/25 10:47:53;;;;;;;1.63;0.70;;;;;;;18.23;54.38;100756.41;7398730;19;19947;-70
2023/07/25 10:50:22;;;;;;;4.15;1.00;;;;;;;18.17;55.52;100763.59;7393770;19;19975;-71
2023/07/25 10:52:53;;;;;;;2.17;0.73;;;;;;;18.13;55.56;100762.41;7398165;19;20711;-71
2023/07/25 10:55:22;;;;;;;4.60;1.20;;;;;;;18.46;54.73;100751.06;7397368;19;19953;-69
2023/07/25 10:58:12;;;;;;;2.88;0.70;;;;;;;18.76;53.42;100757.38;7397884;19;19958;-71
2023/07/25 11:00:41;;;;;;;2.38;0.60;;;;;;;19.14;53.22;100747.94;7395250;19;19953;-70
2023/07/25 11:03:28;;;;;;;4.18;0.80;;;;;;;19.40;52.05;100761.13;7396242;19;19918;-71
2023/07/25 11:06:40;;;;;;;2.75;0.68;;;;;;;19.69;49.96;100746.53;7395314;19;20050;-70
2023/07/25 11:09:15;;;;;;;2.20;0.68;;;;;;;19.84;48.88;100755.06;7393771;19;19929;-70
2023/07/25 11:11:48;;;;;;;7.53;2.05;;;;;;;19.97;48.25;100753.16;7397690;19;19923;-70
2023/07/25 11:14:20;;;;;;;3.38;1.30;;;;;;;19.69;50.81;100748.44;7394561;19;19918;-71
2023/07/25 11:16:53;;;;;;;4.47;0.80;;;;;;;19.26;49.74;100754.22;7395661;19;20288;-70
2023/07/25 11:19:28;;;;;;;3.00;0.90;;;;;;;19.02;49.83;100756.97;7392052;19;19939;-70
2023/07/25 11:21:57;;;;;;;2.97;0.80;;;;;;;18.85;51.46;100764.16;7394934;19;20353;-77
2023/07/25 11:24:28;;;;;;;2.90;0.65;;;;;;;18.90;49.55;100755.25;7393689;19;20298;-81
2023/07/25 11:26:57;;;;;;;3.33;1.08;;;;;;;19.00;50.42;100760.97;7389488;19;19926;-74
2023/07/25 11:29:25;;;;;;;1.38;0.70;;;;;;;19.24;50.21;100751.72;7393867;19;19926;-74
2023/07/25 11:31:54;;;;;;;3.60;0.98;;;;;;;19.77;50.31;100746.16;7390412;19;19930;-75
2023/07/25 11:34:23;;;;;;;6.10;1.08;;;;;;;20.14;49.78;100745.84;7383187;19;19918;-74
2023/07/25 11:36:51;;;;;;;4.32;1.20;;;;;;;20.20;48.33;100753.06;7392913;19;19930;-74